sensor_id;sensor_type;location;lat;lon;timestamp;temperature;humidity
36654;DHT22;22650;49.350;20.898;2023-04-23T00:02:01;4.10;99.90
36654;DHT22;22650;49.350;20.898;2023-04-23T00:04:37;4.10;99.90
36654;DHT22;22650;49.350;20.898;2023-04-23T00:07:11;4.10;99.90
36654;DHT22;22650;49.350;20.898;2023-04-23T00:09:46;4.00;99.90
36654;DHT22;22650;49.350;20.898;2023-04-23T00:12:22;4.00;99.90
36654;DHT22;22650;49.350;20.898;2023-04-23T00:14:56;3.90;99.90
36654;DHT22;22650;49.350;20.898;2023-04-23T00:17:30;4.00;99.90
36654;DHT22;22650;49.350;20.898;2023-04-23T00:20:04;3.90;99.90
36654;DHT22;22650;49.350;20.898;2023-04-23T00:22:38;3.90;99.90
36654;DHT22;22650;49.350;20.898;2023-04-23T00:25:13;3.90;99.90
36654;DHT22;22650;49.350;20.898;2023-04-23T00:27:47;3.90;99.90
36654;DHT22;22650;49.350;20.898;2023-04-23T00:30:20;3.90;99.90
36654;DHT22;22650;49.350;20.898;2023-04-23T00:32:54;3.90;99.90
36654;DHT22;22650;49.350;20.898;2023-04-23T00:35:28;3.90;99.90
36654;DHT22;22650;49.350;20.898;2023-04-23T00:38:01;3.90;99.90
36654;DHT22;22650;49.350;20.898;2023-04-23T00:40:36;3.90;99.90
36654;DHT22;22650;49.350;20.898;2023-04-23T00:43:10;3.90;99.90
36654;DHT22;22650;49.350;20.898;2023-04-23T00:45:44;3.90;99.90
36654;DHT22;22650;49.350;20.898;2023-04-23T00:48:18;3.90;99.90
36654;DHT22;22650;49.350;20.898;2023-04-23T00:50:57;3.90;99.90
36654;DHT22;22650;49.350;20.898;2023-04-23T00:53:31;3.90;99.90
36654;DHT22;22650;49.350;20.898;2023-04-23T00:56:06;3.90;99.90
36654;DHT22;22650;49.350;20.898;2023-04-23T00:58:40;3.90;99.90
36654;DHT22;22650;49.350;20.898;2023-04-23T01:01:14;3.90;99.90
36654;DHT22;22650;49.350;20.898;2023-04-23T01:03:50;3.90;99.90
36654;DHT22;22650;49.350;20.898;2023-04-23T01:06:25;3.90;99.90
36654;DHT22;22650;49.350;20.898;2023-04-23T01:09:00;3.90;99.90
36654;DHT22;22650;49.350;20.898;2023-04-23T01:11:35;3.90;99.90
36654;DHT22;22650;49.350;20.898;2023-04-23T01:14:10;3.90;99.90
36654;DHT22;22650;49.350;20.898;2023-04-23T01:16:44;3.90;99.90
36654;DHT22;22650;49.350;20.898;2023-04-23T01:19:18;3.80;99.90
36654;DHT22;22650;49.350;20.898;2023-04-23T01:21:52;3.80;99.90
36654;DHT22;22650;49.350;20.898;2023-04-23T01:24:28;3.80;99.90
36654;DHT22;22650;49.350;20.898;2023-04-23T01:27:03;3.70;99.90
36654;DHT22;22650;49.350;20.898;2023-04-23T01:29:37;3.70;99.90
36654;DHT22;22650;49.350;20.898;2023-04-23T01:32:11;3.70;99.90
36654;DHT22;22650;49.350;20.898;2023-04-23T01:34:45;3.60;99.90
36654;DHT22;22650;49.350;20.898;2023-04-23T01:37:20;3.60;99.90
36654;DHT22;22650;49.350;20.898;2023-04-23T01:39:56;3.60;99.90
36654;DHT22;22650;49.350;20.898;2023-04-23T01:42:29;3.50;99.90
36654;DHT22;22650;49.350;20.898;2023-04-23T01:45:03;3.50;99.90
36654;DHT22;22650;49.350;20.898;2023-04-23T01:47:39;3.40;99.90
36654;DHT22;22650;49.350;20.898;2023-04-23T01:50:13;3.40;99.90
36654;DHT22;22650;49.350;20.898;2023-04-23T01:52:47;3.40;99.90
36654;DHT22;22650;49.350;20.898;2023-04-23T01:55:22;3.40;99.90
36654;DHT22;22650;49.350;20.898;2023-04-23T01:57:55;3.30;99.90
36654;DHT22;22650;49.350;20.898;2023-04-23T02:00:29;3.30;99.90
36654;DHT22;22650;49.350;20.898;2023-04-23T02:03:03;3.30;99.90
36654;DHT22;22650;49.350;20.898;2023-04-23T02:05:38;3.20;99.90
36654;DHT22;22650;49.350;20.898;2023-04-23T02:08:12;3.20;99.90
36654;DHT22;22650;49.350;20.898;2023-04-23T02:10:47;3.10;99.90
36654;DHT22;22650;49.350;20.898;2023-04-23T02:13:22;3.10;99.90
36654;DHT22;22650;49.350;20.898;2023-04-23T02:15:55;3.10;99.90
36654;DHT22;22650;49.350;20.898;2023-04-23T02:18:29;3.00;99.90
36654;DHT22;22650;49.350;20.898;2023-04-23T02:21:04;3.00;99.90
36654;DHT22;22650;49.350;20.898;2023-04-23T02:23:38;3.00;99.90
36654;DHT22;22650;49.350;20.898;2023-04-23T02:26:13;2.90;99.90
36654;DHT22;22650;49.350;20.898;2023-04-23T02:28:46;2.90;99.90
36654;DHT22;22650;49.350;20.898;2023-04-23T02:31:20;2.90;99.90
36654;DHT22;22650;49.350;20.898;2023-04-23T02:33:54;2.90;99.90
36654;DHT22;22650;49.350;20.898;2023-04-23T02:36:27;2.80;99.90
36654;DHT22;22650;49.350;20.898;2023-04-23T02:39:02;2.80;99.90
36654;DHT22;22650;49.350;20.898;2023-04-23T02:41:37;2.80;99.90
36654;DHT22;22650;49.350;20.898;2023-04-23T02:44:10;2.80;99.90
36654;DHT22;22650;49.350;20.898;2023-04-23T02:46:44;2.70;99.90
36654;DHT22;22650;49.350;20.898;2023-04-23T02:49:17;2.70;99.90
36654;DHT22;22650;49.350;20.898;2023-04-23T02:51:51;2.70;99.90
36654;DHT22;22650;49.350;20.898;2023-04-23T02:54:25;2.60;99.90
36654;DHT22;22650;49.350;20.898;2023-04-23T02:57:00;2.70;99.90
36654;DHT22;22650;49.350;20.898;2023-04-23T02:59:34;2.60;99.90
36654;DHT22;22650;49.350;20.898;2023-04-23T03:02:07;2.60;99.90
36654;DHT22;22650;49.350;20.898;2023-04-23T03:04:41;2.50;99.90
36654;DHT22;22650;49.350;20.898;2023-04-23T03:07:15;2.50;99.90
36654;DHT22;22650;49.350;20.898;2023-04-23T03:09:49;2.50;99.90
36654;DHT22;22650;49.350;20.898;2023-04-23T03:12:24;2.50;99.90
36654;DHT22;22650;49.350;20.898;2023-04-23T03:14:57;2.40;99.90
36654;DHT22;22650;49.350;20.898;2023-04-23T03:17:33;2.40;99.90
36654;DHT22;22650;49.350;20.898;2023-04-23T03:20:08;2.40;99.90
36654;DHT22;22650;49.350;20.898;2023-04-23T03:22:43;2.40;99.90
36654;DHT22;22650;49.350;20.898;2023-04-23T03:25:17;2.40;99.90
36654;DHT22;22650;49.350;20.898;2023-04-23T03:27:53;2.30;99.90
36654;DHT22;22650;49.350;20.898;2023-04-23T03:30:28;2.30;99.90
36654;DHT22;22650;49.350;20.898;2023-04-23T03:33:01;2.30;99.90
36654;DHT22;22650;49.350;20.898;2023-04-23T03:35:35;2.30;99.90
36654;DHT22;22650;49.350;20.898;2023-04-23T03:38:13;2.20;99.90
36654;DHT22;22650;49.350;20.898;2023-04-23T03:40:47;2.20;99.90
36654;DHT22;22650;49.350;20.898;2023-04-23T03:43:22;2.20;99.90
36654;DHT22;22650;49.350;20.898;2023-04-23T03:46:16;2.20;99.90
36654;DHT22;22650;49.350;20.898;2023-04-23T03:48:51;2.20;99.90
36654;DHT22;22650;49.350;20.898;2023-04-23T03:51:30;2.20;99.90
36654;DHT22;22650;49.350;20.898;2023-04-23T03:54:04;2.10;99.90
36654;DHT22;22650;49.350;20.898;2023-04-23T03:56:40;2.10;99.90
36654;DHT22;22650;49.350;20.898;2023-04-23T03:59:18;2.10;99.90
36654;DHT22;22650;49.350;20.898;2023-04-23T04:01:53;2.10;99.90
36654;DHT22;22650;49.350;20.898;2023-04-23T04:04:29;2.10;99.90
36654;DHT22;22650;49.350;20.898;2023-04-23T04:07:04;2.10;99.90
36654;DHT22;22650;49.350;20.898;2023-04-23T04:09:38;2.10;99.90
36654;DHT22;22650;49.350;20.898;2023-04-23T04:12:12;2.10;99.90
36654;DHT22;22650;49.350;20.898;2023-04-23T04:14:48;2.10;99.90
36654;DHT22;22650;49.350;20.898;2023-04-23T04:17:22;2.10;99.90
36654;DHT22;22650;49.350;20.898;2023-04-23T04:19:56;2.20;99.90
36654;DHT22;22650;49.350;20.898;2023-04-23T04:22:29;2.20;99.90
36654;DHT22;22650;49.350;20.898;2023-04-23T04:25:03;2.20;99.90
36654;DHT22;22650;49.350;20.898;2023-04-23T04:27:37;2.20;99.90
36654;DHT22;22650;49.350;20.898;2023-04-23T04:30:14;2.20;99.90
36654;DHT22;22650;49.350;20.898;2023-04-23T04:32:47;2.20;99.90
36654;DHT22;22650;49.350;20.898;2023-04-23T04:35:22;2.30;99.90
36654;DHT22;22650;49.350;20.898;2023-04-23T04:37:55;2.30;99.90
36654;DHT22;22650;49.350;20.898;2023-04-23T04:40:29;2.30;99.90
36654;DHT22;22650;49.350;20.898;2023-04-23T04:43:04;2.40;99.90
36654;DHT22;22650;49.350;20.898;2023-04-23T04:45:39;2.40;99.90
36654;DHT22;22650;49.350;20.898;2023-04-23T04:48:13;2.40;99.90
36654;DHT22;22650;49.350;20.898;2023-04-23T04:50:48;2.50;99.90
36654;DHT22;22650;49.350;20.898;2023-04-23T04:53:21;2.50;99.90
36654;DHT22;22650;49.350;20.898;2023-04-23T04:55:55;2.50;99.90
36654;DHT22;22650;49.350;20.898;2023-04-23T04:58:28;2.60;99.90
36654;DHT22;22650;49.350;20.898;2023-04-23T05:01:04;2.60;99.90
36654;DHT22;22650;49.350;20.898;2023-04-23T05:03:37;2.60;99.90
36654;DHT22;22650;49.350;20.898;2023-04-23T05:06:11;2.70;99.90
36654;DHT22;22650;49.350;20.898;2023-04-23T05:08:45;2.70;99.90
36654;DHT22;22650;49.350;20.898;2023-04-23T05:11:20;2.80;99.90
36654;DHT22;22650;49.350;20.898;2023-04-23T05:13:53;2.80;99.90
36654;DHT22;22650;49.350;20.898;2023-04-23T05:16:28;2.90;99.90
36654;DHT22;22650;49.350;20.898;2023-04-23T05:19:02;2.90;99.90
36654;DHT22;22650;49.350;20.898;2023-04-23T05:21:35;3.00;99.90
36654;DHT22;22650;49.350;20.898;2023-04-23T05:24:10;3.10;99.90
36654;DHT22;22650;49.350;20.898;2023-04-23T05:26:43;3.20;99.90
36654;DHT22;22650;49.350;20.898;2023-04-23T05:29:17;3.30;99.90
36654;DHT22;22650;49.350;20.898;2023-04-23T05:31:52;3.30;99.90
36654;DHT22;22650;49.350;20.898;2023-04-23T05:34:25;3.40;99.90
36654;DHT22;22650;49.350;20.898;2023-04-23T05:36:59;3.50;99.90
36654;DHT22;22650;49.350;20.898;2023-04-23T05:39:33;3.60;99.90
36654;DHT22;22650;49.350;20.898;2023-04-23T05:42:06;3.70;99.90
36654;DHT22;22650;49.350;20.898;2023-04-23T05:44:40;3.70;99.90
36654;DHT22;22650;49.350;20.898;2023-04-23T05:47:15;3.90;99.90
36654;DHT22;22650;49.350;20.898;2023-04-23T05:49:49;4.00;99.90
36654;DHT22;22650;49.350;20.898;2023-04-23T05:52:22;4.10;99.90
36654;DHT22;22650;49.350;20.898;2023-04-23T05:54:56;4.20;99.90
36654;DHT22;22650;49.350;20.898;2023-04-23T05:57:30;4.30;99.90
36654;DHT22;22650;49.350;20.898;2023-04-23T06:00:05;4.50;99.90
36654;DHT22;22650;49.350;20.898;2023-04-23T06:02:45;4.60;99.90
36654;DHT22;22650;49.350;20.898;2023-04-23T06:05:19;4.80;99.90
36654;DHT22;22650;49.350;20.898;2023-04-23T06:07:53;4.90;99.90
36654;DHT22;22650;49.350;20.898;2023-04-23T06:10:26;5.10;99.90
36654;DHT22;22650;49.350;20.898;2023-04-23T06:13:00;5.30;99.90
36654;DHT22;22650;49.350;20.898;2023-04-23T06:15:33;5.50;99.90
36654;DHT22;22650;49.350;20.898;2023-04-23T06:18:08;5.70;99.90
36654;DHT22;22650;49.350;20.898;2023-04-23T06:20:42;5.90;99.90
36654;DHT22;22650;49.350;20.898;2023-04-23T06:23:16;6.20;99.90
36654;DHT22;22650;49.350;20.898;2023-04-23T06:25:50;6.40;99.90
36654;DHT22;22650;49.350;20.898;2023-04-23T06:28:23;6.70;99.90
36654;DHT22;22650;49.350;20.898;2023-04-23T06:31:29;7.00;99.90
36654;DHT22;22650;49.350;20.898;2023-04-23T06:34:04;7.40;99.90
36654;DHT22;22650;49.350;20.898;2023-04-23T06:36:37;7.70;99.90
36654;DHT22;22650;49.350;20.898;2023-04-23T06:39:11;8.00;99.90
36654;DHT22;22650;49.350;20.898;2023-04-23T06:41:44;8.40;99.90
36654;DHT22;22650;49.350;20.898;2023-04-23T06:44:27;8.70;99.90
36654;DHT22;22650;49.350;20.898;2023-04-23T06:47:00;9.00;99.90
36654;DHT22;22650;49.350;20.898;2023-04-23T06:49:35;9.40;99.90
36654;DHT22;22650;49.350;20.898;2023-04-23T06:52:09;9.70;99.90
36654;DHT22;22650;49.350;20.898;2023-04-23T06:54:43;10.00;99.90
36654;DHT22;22650;49.350;20.898;2023-04-23T06:57:16;10.40;99.90
36654;DHT22;22650;49.350;20.898;2023-04-23T06:59:50;10.80;99.90
36654;DHT22;22650;49.350;20.898;2023-04-23T07:02:26;11.20;99.90
36654;DHT22;22650;49.350;20.898;2023-04-23T07:05:02;11.60;99.90
36654;DHT22;22650;49.350;20.898;2023-04-23T07:07:36;12.00;99.90
36654;DHT22;22650;49.350;20.898;2023-04-23T07:10:10;12.40;99.90
36654;DHT22;22650;49.350;20.898;2023-04-23T07:12:48;12.80;99.90
36654;DHT22;22650;49.350;20.898;2023-04-23T07:15:22;13.30;99.90
36654;DHT22;22650;49.350;20.898;2023-04-23T07:17:55;13.70;99.90
36654;DHT22;22650;49.350;20.898;2023-04-23T07:20:31;14.10;99.90
36654;DHT22;22650;49.350;20.898;2023-04-23T07:23:04;14.60;99.90
36654;DHT22;22650;49.350;20.898;2023-04-23T07:25:38;15.00;99.90
36654;DHT22;22650;49.350;20.898;2023-04-23T07:28:12;15.40;99.90
36654;DHT22;22650;49.350;20.898;2023-04-23T07:30:45;15.80;99.90
36654;DHT22;22650;49.350;20.898;2023-04-23T07:33:19;16.30;96.70
36654;DHT22;22650;49.350;20.898;2023-04-23T07:35:54;16.70;92.80
36654;DHT22;22650;49.350;20.898;2023-04-23T07:38:27;17.00;93.50
36654;DHT22;22650;49.350;20.898;2023-04-23T07:41:01;17.50;91.60
36654;DHT22;22650;49.350;20.898;2023-04-23T07:43:34;17.90;87.00
36654;DHT22;22650;49.350;20.898;2023-04-23T07:46:08;18.20;83.30
36654;DHT22;22650;49.350;20.898;2023-04-23T07:48:41;18.30;81.30
36654;DHT22;22650;49.350;20.898;2023-04-23T07:51:17;18.60;83.40
36654;DHT22;22650;49.350;20.898;2023-04-23T07:53:50;18.90;78.50
36654;DHT22;22650;49.350;20.898;2023-04-23T07:56:25;18.90;76.20
36654;DHT22;22650;49.350;20.898;2023-04-23T07:58:59;19.10;76.40
36654;DHT22;22650;49.350;20.898;2023-04-23T08:01:32;19.30;76.80
36654;DHT22;22650;49.350;20.898;2023-04-23T08:04:06;19.70;77.30
36654;DHT22;22650;49.350;20.898;2023-04-23T08:06:41;20.00;75.60
36654;DHT22;22650;49.350;20.898;2023-04-23T08:09:15;20.30;69.60
36654;DHT22;22650;49.350;20.898;2023-04-23T08:11:48;20.50;68.00
36654;DHT22;22650;49.350;20.898;2023-04-23T08:14:22;20.70;66.80
36654;DHT22;22650;49.350;20.898;2023-04-23T08:16:55;21.00;65.80
36654;DHT22;22650;49.350;20.898;2023-04-23T08:19:29;21.20;64.80
36654;DHT22;22650;49.350;20.898;2023-04-23T08:22:07;21.30;63.00
36654;DHT22;22650;49.350;20.898;2023-04-23T08:24:42;21.60;63.90
36654;DHT22;22650;49.350;20.898;2023-04-23T08:27:16;21.80;61.50
36654;DHT22;22650;49.350;20.898;2023-04-23T08:29:49;22.10;60.10
36654;DHT22;22650;49.350;20.898;2023-04-23T08:32:29;22.30;61.00
36654;DHT22;22650;49.350;20.898;2023-04-23T08:35:03;22.60;57.60
36654;DHT22;22650;49.350;20.898;2023-04-23T08:37:38;22.60;58.10
36654;DHT22;22650;49.350;20.898;2023-04-23T08:40:12;22.90;58.00
36654;DHT22;22650;49.350;20.898;2023-04-23T08:42:49;23.10;58.10
36654;DHT22;22650;49.350;20.898;2023-04-23T08:45:23;23.30;57.60
36654;DHT22;22650;49.350;20.898;2023-04-23T08:47:58;23.50;56.70
36654;DHT22;22650;49.350;20.898;2023-04-23T08:50:35;23.80;55.20
36654;DHT22;22650;49.350;20.898;2023-04-23T08:53:16;23.40;52.80
36654;DHT22;22650;49.350;20.898;2023-04-23T08:55:50;23.50;54.30
36654;DHT22;22650;49.350;20.898;2023-04-23T08:58:24;23.70;55.30
36654;DHT22;22650;49.350;20.898;2023-04-23T09:01:00;24.00;55.60
36654;DHT22;22650;49.350;20.898;2023-04-23T09:03:33;24.30;54.10
36654;DHT22;22650;49.350;20.898;2023-04-23T09:06:08;24.60;52.60
36654;DHT22;22650;49.350;20.898;2023-04-23T09:08:44;24.90;52.60
36654;DHT22;22650;49.350;20.898;2023-04-23T09:11:19;25.20;51.00
36654;DHT22;22650;49.350;20.898;2023-04-23T09:13:55;25.40;52.60
36654;DHT22;22650;49.350;20.898;2023-04-23T09:16:29;25.50;52.00
36654;DHT22;22650;49.350;20.898;2023-04-23T09:19:03;25.60;50.90
36654;DHT22;22650;49.350;20.898;2023-04-23T09:21:38;25.90;51.70
36654;DHT22;22650;49.350;20.898;2023-04-23T09:24:14;25.90;48.60
36654;DHT22;22650;49.350;20.898;2023-04-23T09:26:50;26.00;48.50
36654;DHT22;22650;49.350;20.898;2023-04-23T09:29:25;26.00;48.70
36654;DHT22;22650;49.350;20.898;2023-04-23T09:32:06;26.00;48.50
36654;DHT22;22650;49.350;20.898;2023-04-23T09:34:40;26.00;48.60
36654;DHT22;22650;49.350;20.898;2023-04-23T09:37:17;26.10;49.40
36654;DHT22;22650;49.350;20.898;2023-04-23T09:39:53;26.20;49.00
36654;DHT22;22650;49.350;20.898;2023-04-23T09:42:28;26.10;48.30
36654;DHT22;22650;49.350;20.898;2023-04-23T09:45:04;25.80;47.00
36654;DHT22;22650;49.350;20.898;2023-04-23T09:47:39;25.90;50.20
36654;DHT22;22650;49.350;20.898;2023-04-23T09:50:14;26.10;49.70
36654;DHT22;22650;49.350;20.898;2023-04-23T09:52:53;26.20;48.70
36654;DHT22;22650;49.350;20.898;2023-04-23T09:55:30;26.10;46.20
36654;DHT22;22650;49.350;20.898;2023-04-23T09:58:11;26.10;46.30
36654;DHT22;22650;49.350;20.898;2023-04-23T10:00:44;26.00;47.20
36654;DHT22;22650;49.350;20.898;2023-04-23T10:03:25;25.90;46.40
36654;DHT22;22650;49.350;20.898;2023-04-23T10:05:59;25.70;44.60
36654;DHT22;22650;49.350;20.898;2023-04-23T10:08:34;25.40;45.10
36654;DHT22;22650;49.350;20.898;2023-04-23T10:11:10;25.40;44.70
36654;DHT22;22650;49.350;20.898;2023-04-23T10:13:52;25.50;45.60
36654;DHT22;22650;49.350;20.898;2023-04-23T10:16:26;25.50;45.20
36654;DHT22;22650;49.350;20.898;2023-04-23T10:19:13;25.50;45.30
36654;DHT22;22650;49.350;20.898;2023-04-23T10:21:49;25.50;46.30
36654;DHT22;22650;49.350;20.898;2023-04-23T10:24:38;25.50;46.10
36654;DHT22;22650;49.350;20.898;2023-04-23T10:27:14;25.50;46.70
36654;DHT22;22650;49.350;20.898;2023-04-23T10:30:09;25.60;46.50
36654;DHT22;22650;49.350;20.898;2023-04-23T10:32:45;25.50;46.30
36654;DHT22;22650;49.350;20.898;2023-04-23T10:35:20;25.60;46.10
36654;DHT22;22650;49.350;20.898;2023-04-23T10:37:54;25.30;44.60
36654;DHT22;22650;49.350;20.898;2023-04-23T10:40:29;24.90;45.70
36654;DHT22;22650;49.350;20.898;2023-04-23T10:43:05;24.50;45.20
36654;DHT22;22650;49.350;20.898;2023-04-23T10:45:39;24.30;46.70
36654;DHT22;22650;49.350;20.898;2023-04-23T10:48:13;24.00;45.30
36654;DHT22;22650;49.350;20.898;2023-04-23T10:50:56;23.50;45.50
36654;DHT22;22650;49.350;20.898;2023-04-23T10:53:51;23.10;45.50
36654;DHT22;22650;49.350;20.898;2023-04-23T10:56:26;22.70;46.40
36654;DHT22;22650;49.350;20.898;2023-04-23T10:59:05;22.50;45.80
36654;DHT22;22650;49.350;20.898;2023-04-23T11:01:39;22.40;46.90
36654;DHT22;22650;49.350;20.898;2023-04-23T11:04:23;22.30;47.90
36654;DHT22;22650;49.350;20.898;2023-04-23T11:06:59;22.10;46.70
36654;DHT22;22650;49.350;20.898;2023-04-23T11:09:39;22.00;47.20
36654;DHT22;22650;49.350;20.898;2023-04-23T11:12:31;22.00;47.60
36654;DHT22;22650;49.350;20.898;2023-04-23T11:15:13;22.30;50.50
36654;DHT22;22650;49.350;20.898;2023-04-23T11:18:00;22.50;48.80
36654;DHT22;22650;49.350;20.898;2023-04-23T11:20:36;22.80;46.60
36654;DHT22;22650;49.350;20.898;2023-04-23T11:23:28;23.10;47.50
36654;DHT22;22650;49.350;20.898;2023-04-23T11:26:04;23.30;44.10
36654;DHT22;22650;49.350;20.898;2023-04-23T11:28:39;23.50;46.50
36654;DHT22;22650;49.350;20.898;2023-04-23T11:31:16;23.70;46.60
36654;DHT22;22650;49.350;20.898;2023-04-23T11:33:50;23.60;45.30
36654;DHT22;22650;49.350;20.898;2023-04-23T11:36:24;23.80;46.40
36654;DHT22;22650;49.350;20.898;2023-04-23T11:38:58;23.80;45.40
36654;DHT22;22650;49.350;20.898;2023-04-23T11:41:34;24.00;45.80
36654;DHT22;22650;49.350;20.898;2023-04-23T11:44:07;24.10;46.10
36654;DHT22;22650;49.350;20.898;2023-04-23T11:46:42;24.20;46.10
36654;DHT22;22650;49.350;20.898;2023-04-23T11:49:18;24.20;45.40
36654;DHT22;22650;49.350;20.898;2023-04-23T11:51:52;24.40;46.30
36654;DHT22;22650;49.350;20.898;2023-04-23T11:54:27;24.70;46.70
36654;DHT22;22650;49.350;20.898;2023-04-23T11:57:01;24.70;45.70
36654;DHT22;22650;49.350;20.898;2023-04-23T11:59:35;24.70;45.30
36654;DHT22;22650;49.350;20.898;2023-04-23T12:02:10;24.90;45.70
36654;DHT22;22650;49.350;20.898;2023-04-23T12:04:44;25.00;46.50
36654;DHT22;22650;49.350;20.898;2023-04-23T12:07:18;25.00;44.70
36654;DHT22;22650;49.350;20.898;2023-04-23T12:09:58;25.20;43.90
36654;DHT22;22650;49.350;20.898;2023-04-23T12:12:33;25.30;44.70
36654;DHT22;22650;49.350;20.898;2023-04-23T12:15:08;25.30;43.10
36654;DHT22;22650;49.350;20.898;2023-04-23T12:17:47;25.30;43.00
36654;DHT22;22650;49.350;20.898;2023-04-23T12:20:21;25.30;42.80
36654;DHT22;22650;49.350;20.898;2023-04-23T12:22:54;25.30;43.20
36654;DHT22;22650;49.350;20.898;2023-04-23T12:25:28;25.40;43.00
36654;DHT22;22650;49.350;20.898;2023-04-23T12:28:02;25.50;43.00
36654;DHT22;22650;49.350;20.898;2023-04-23T12:30:42;25.60;43.30
36654;DHT22;22650;49.350;20.898;2023-04-23T12:33:17;25.30;41.50
36654;DHT22;22650;49.350;20.898;2023-04-23T12:35:51;25.40;43.00
36654;DHT22;22650;49.350;20.898;2023-04-23T12:38:25;25.10;42.60
36654;DHT22;22650;49.350;20.898;2023-04-23T12:40:59;25.20;45.50
36654;DHT22;22650;49.350;20.898;2023-04-23T12:43:33;25.00;42.30
36654;DHT22;22650;49.350;20.898;2023-04-23T12:46:06;25.20;45.10
36654;DHT22;22650;49.350;20.898;2023-04-23T12:48:41;25.30;43.00
36654;DHT22;22650;49.350;20.898;2023-04-23T12:51:15;25.10;43.20
36654;DHT22;22650;49.350;20.898;2023-04-23T12:53:48;25.00;42.20
36654;DHT22;22650;49.350;20.898;2023-04-23T12:56:22;24.90;43.40
36654;DHT22;22650;49.350;20.898;2023-04-23T12:58:55;24.70;43.00
36654;DHT22;22650;49.350;20.898;2023-04-23T13:01:29;24.70;43.10
36654;DHT22;22650;49.350;20.898;2023-04-23T13:04:04;24.70;44.40
36654;DHT22;22650;49.350;20.898;2023-04-23T13:06:38;24.80;44.90
36654;DHT22;22650;49.350;20.898;2023-04-23T13:09:12;24.80;44.20
36654;DHT22;22650;49.350;20.898;2023-04-23T13:11:45;24.80;43.80
36654;DHT22;22650;49.350;20.898;2023-04-23T13:14:20;24.80;43.50
36654;DHT22;22650;49.350;20.898;2023-04-23T13:16:54;24.70;44.60
36654;DHT22;22650;49.350;20.898;2023-04-23T13:19:30;24.60;43.70
36654;DHT22;22650;49.350;20.898;2023-04-23T13:22:05;24.80;44.70
36654;DHT22;22650;49.350;20.898;2023-04-23T13:24:38;24.90;44.20
36654;DHT22;22650;49.350;20.898;2023-04-23T13:27:12;25.10;45.00
36654;DHT22;22650;49.350;20.898;2023-04-23T13:29:45;25.20;44.30
36654;DHT22;22650;49.350;20.898;2023-04-23T13:32:19;25.30;44.00
36654;DHT22;22650;49.350;20.898;2023-04-23T13:34:55;25.20;43.60
36654;DHT22;22650;49.350;20.898;2023-04-23T13:37:32;25.10;43.20
36654;DHT22;22650;49.350;20.898;2023-04-23T13:40:06;25.00;44.60
36654;DHT22;22650;49.350;20.898;2023-04-23T13:42:40;25.10;45.20
36654;DHT22;22650;49.350;20.898;2023-04-23T13:45:13;25.10;45.50
36654;DHT22;22650;49.350;20.898;2023-04-23T13:47:47;24.90;43.10
36654;DHT22;22650;49.350;20.898;2023-04-23T13:50:22;24.80;43.20
36654;DHT22;22650;49.350;20.898;2023-04-23T13:52:56;24.50;43.00
36654;DHT22;22650;49.350;20.898;2023-04-23T13:55:30;24.50;44.40
36654;DHT22;22650;49.350;20.898;2023-04-23T13:58:04;24.60;44.60
36654;DHT22;22650;49.350;20.898;2023-04-23T14:00:38;24.50;44.70
36654;DHT22;22650;49.350;20.898;2023-04-23T14:03:12;24.40;44.70
36654;DHT22;22650;49.350;20.898;2023-04-23T14:05:47;24.20;44.50
36654;DHT22;22650;49.350;20.898;2023-04-23T14:08:21;24.10;43.90
36654;DHT22;22650;49.350;20.898;2023-04-23T14:10:55;24.10;44.90
36654;DHT22;22650;49.350;20.898;2023-04-23T14:13:29;24.20;45.50
36654;DHT22;22650;49.350;20.898;2023-04-23T14:16:03;24.30;44.70
36654;DHT22;22650;49.350;20.898;2023-04-23T14:18:36;24.20;45.40
36654;DHT22;22650;49.350;20.898;2023-04-23T14:21:11;24.20;45.00
36654;DHT22;22650;49.350;20.898;2023-04-23T14:23:54;24.10;44.60
36654;DHT22;22650;49.350;20.898;2023-04-23T14:26:33;24.10;45.10
36654;DHT22;22650;49.350;20.898;2023-04-23T14:29:17;24.10;45.10
36654;DHT22;22650;49.350;20.898;2023-04-23T14:31:51;24.20;45.10
36654;DHT22;22650;49.350;20.898;2023-04-23T14:34:25;24.10;44.70
36654;DHT22;22650;49.350;20.898;2023-04-23T14:37:00;24.00;44.80
36654;DHT22;22650;49.350;20.898;2023-04-23T14:39:34;23.90;44.40
36654;DHT22;22650;49.350;20.898;2023-04-23T14:42:08;23.80;44.40
36654;DHT22;22650;49.350;20.898;2023-04-23T14:44:41;23.70;45.40
36654;DHT22;22650;49.350;20.898;2023-04-23T14:47:15;23.50;45.40
36654;DHT22;22650;49.350;20.898;2023-04-23T14:49:50;23.40;45.50
36654;DHT22;22650;49.350;20.898;2023-04-23T14:52:25;23.40;45.50
36654;DHT22;22650;49.350;20.898;2023-04-23T14:54:59;23.30;46.10
36654;DHT22;22650;49.350;20.898;2023-04-23T14:57:32;23.30;46.00
36654;DHT22;22650;49.350;20.898;2023-04-23T15:00:07;23.30;45.40
36654;DHT22;22650;49.350;20.898;2023-04-23T15:02:44;23.30;45.40
36654;DHT22;22650;49.350;20.898;2023-04-23T15:05:18;23.20;45.60
36654;DHT22;22650;49.350;20.898;2023-04-23T15:07:53;23.10;45.90
36654;DHT22;22650;49.350;20.898;2023-04-23T15:10:27;23.00;45.80
36654;DHT22;22650;49.350;20.898;2023-04-23T15:13:02;22.80;45.40
36654;DHT22;22650;49.350;20.898;2023-04-23T15:15:42;22.70;46.70
36654;DHT22;22650;49.350;20.898;2023-04-23T15:18:18;22.60;46.40
36654;DHT22;22650;49.350;20.898;2023-04-23T15:20:51;22.60;46.80
36654;DHT22;22650;49.350;20.898;2023-04-23T15:23:26;22.50;47.60
36654;DHT22;22650;49.350;20.898;2023-04-23T15:26:00;22.40;47.60
36654;DHT22;22650;49.350;20.898;2023-04-23T15:28:33;22.40;46.80
36654;DHT22;22650;49.350;20.898;2023-04-23T15:31:07;22.30;47.50
36654;DHT22;22650;49.350;20.898;2023-04-23T15:33:41;22.10;47.80
36654;DHT22;22650;49.350;20.898;2023-04-23T15:36:14;21.90;47.20
36654;DHT22;22650;49.350;20.898;2023-04-23T15:38:49;21.80;48.00
36654;DHT22;22650;49.350;20.898;2023-04-23T15:41:22;21.70;49.20
36654;DHT22;22650;49.350;20.898;2023-04-23T15:43:56;21.70;48.80
36654;DHT22;22650;49.350;20.898;2023-04-23T15:46:29;21.60;47.90
36654;DHT22;22650;49.350;20.898;2023-04-23T15:49:03;21.50;47.10
36654;DHT22;22650;49.350;20.898;2023-04-23T15:51:37;21.40;48.10
36654;DHT22;22650;49.350;20.898;2023-04-23T15:54:12;21.40;48.50
36654;DHT22;22650;49.350;20.898;2023-04-23T15:56:45;21.20;48.10
36654;DHT22;22650;49.350;20.898;2023-04-23T15:59:19;21.00;48.50
36654;DHT22;22650;49.350;20.898;2023-04-23T16:01:52;20.80;48.30
36654;DHT22;22650;49.350;20.898;2023-04-23T16:04:26;20.70;49.00
36654;DHT22;22650;49.350;20.898;2023-04-23T16:06:59;20.50;49.30
36654;DHT22;22650;49.350;20.898;2023-04-23T16:09:34;20.30;48.60
36654;DHT22;22650;49.350;20.898;2023-04-23T16:12:08;20.10;49.10